createdAt,value
2022-09-22T00:01:02.814Z,100889.47
2022-09-22T00:03:30.324Z,100900.94
2022-09-22T00:06:10.683Z,100895.06
2022-09-22T00:08:39.743Z,100888.84
2022-09-22T00:11:19.269Z,100846.81
2022-09-22T00:13:54.691Z,100839.91
2022-09-22T00:16:29.850Z,100878.81
2022-09-22T00:18:56.707Z,100846.25
2022-09-22T00:21:27.998Z,100831.63
2022-09-22T00:23:55.350Z,100883.59
2022-09-22T00:26:23.883Z,100843.09
2022-09-22T00:28:52.900Z,100860.97
2022-09-22T00:31:25.121Z,100864.25
2022-09-22T00:33:53.939Z,100881.00
2022-09-22T00:36:22.951Z,100858.34
2022-09-22T00:38:51.704Z,100875.50
2022-09-22T00:41:30.899Z,100878.53
2022-09-22T00:44:37.728Z,100860.88
2022-09-22T00:47:29.692Z,100839.06
2022-09-22T00:50:05.592Z,100814.53
2022-09-22T00:52:37.572Z,100855.16
2022-09-22T00:55:09.199Z,100828.22
2022-09-22T00:57:39.776Z,100801.78
2022-09-22T01:00:09.574Z,100848.06
2022-09-22T01:02:37.311Z,100837.19
2022-09-22T01:05:05.358Z,100822.94
2022-09-22T01:07:32.510Z,100812.94
2022-09-22T01:09:59.976Z,100798.59
2022-09-22T01:12:29.644Z,100830.78
2022-09-22T01:15:14.511Z,100841.72
2022-09-22T01:18:04.199Z,100832.69
2022-09-22T01:20:33.752Z,100830.88
2022-09-22T01:23:06.511Z,100820.56
2022-09-22T01:26:00.396Z,100767.53
2022-09-22T01:28:30.004Z,100822.19
2022-09-22T01:31:04.263Z,100809.81
2022-09-22T01:33:59.242Z,100801.03
2022-09-22T01:36:41.418Z,100806.78
2022-09-22T01:39:14.544Z,100796.03
2022-09-22T01:42:17.186Z,100790.09
2022-09-22T01:44:54.867Z,100767.81
2022-09-22T01:47:26.855Z,100771.59
2022-09-22T01:49:59.420Z,100750.53
2022-09-22T01:52:29.853Z,100771.56
2022-09-22T01:55:06.224Z,100772.34
2022-09-22T01:57:52.027Z,100755.63
2022-09-22T02:00:19.076Z,100740.25
2022-09-22T02:03:10.535Z,100745.91
2022-09-22T02:05:49.671Z,100740.50
2022-09-22T02:08:33.000Z,100741.59
2022-09-22T02:11:09.835Z,100739.94
2022-09-22T02:13:37.072Z,100729.28
2022-09-22T02:16:05.739Z,100735.63
2022-09-22T02:18:43.670Z,100736.44
2022-09-22T02:21:11.082Z,100731.72
2022-09-22T02:23:38.275Z,100750.59
2022-09-22T02:26:06.917Z,100743.03
2022-09-22T02:28:38.817Z,100707.00
2022-09-22T02:31:25.117Z,100753.53
2022-09-22T02:33:52.586Z,100701.13
2022-09-22T02:36:50.564Z,100705.66
2022-09-22T02:39:31.144Z,100750.22
2022-09-22T02:42:06.878Z,100743.13
2022-09-22T02:44:52.834Z,100729.56
2022-09-22T02:47:40.227Z,100743.06
2022-09-22T02:50:10.824Z,100673.00
2022-09-22T02:52:39.470Z,100701.69
2022-09-22T02:55:08.390Z,100700.13
2022-09-22T02:57:35.159Z,100672.75
2022-09-22T03:00:02.658Z,100657.81
2022-09-22T03:02:29.374Z,100671.91
2022-09-22T03:04:57.614Z,100686.84
2022-09-22T03:07:24.381Z,100697.88
2022-09-22T03:09:51.087Z,100661.84
2022-09-22T03:12:17.861Z,100641.16
2022-09-22T03:14:44.537Z,100659.09
2022-09-22T03:17:11.236Z,100650.97
2022-09-22T03:19:38.011Z,100685.66
2022-09-22T03:22:04.888Z,100627.31
2022-09-22T03:24:31.618Z,100675.13
2022-09-22T03:26:58.364Z,100636.44
2022-09-22T03:29:25.067Z,100663.75
2022-09-22T03:31:51.808Z,100660.47
2022-09-22T03:34:18.518Z,100625.91
2022-09-22T03:36:45.263Z,100623.22
2022-09-22T03:39:11.931Z,100633.03
2022-09-22T03:41:38.787Z,100593.28
2022-09-22T03:44:06.041Z,100630.25
2022-09-22T03:46:32.922Z,100626.19
2022-09-22T03:48:59.623Z,100593.63
2022-09-22T03:51:26.624Z,100625.47
2022-09-22T03:53:54.634Z,100611.28
2022-09-22T03:56:21.277Z,100616.59
2022-09-22T03:58:48.028Z,100647.75
2022-09-22T04:01:14.967Z,100615.72
2022-09-22T04:03:42.014Z,100598.00
2022-09-22T04:06:10.424Z,100599.91
2022-09-22T04:08:37.382Z,100628.84
2022-09-22T04:11:05.303Z,100601.63
2022-09-22T04:13:32.060Z,100590.97
2022-09-22T04:15:58.718Z,100605.81
2022-09-22T04:18:26.616Z,100620.03
2022-09-22T04:20:58.286Z,100626.84
2022-09-22T04:23:26.476Z,100632.19
2022-09-22T04:25:53.264Z,100604.09
2022-09-22T04:28:19.947Z,100591.94
2022-09-22T04:30:47.545Z,100571.94
2022-09-22T04:33:14.502Z,100634.69
2022-09-22T04:35:41.175Z,100592.06
2022-09-22T04:38:07.878Z,100608.41
2022-09-22T04:40:34.674Z,100614.13
2022-09-22T04:43:01.449Z,100628.59
2022-09-22T04:45:28.132Z,100589.75
2022-09-22T04:47:55.098Z,100562.41
2022-09-22T04:50:23.175Z,100583.50
2022-09-22T04:52:52.898Z,100627.75
2022-09-22T04:55:21.139Z,100593.00
2022-09-22T04:57:49.089Z,100606.53
2022-09-22T05:00:16.801Z,100591.94
2022-09-22T05:02:43.775Z,100601.66
2022-09-22T05:05:10.906Z,100579.13
2022-09-22T05:07:45.765Z,100602.69
2022-09-22T05:10:13.454Z,100558.97
2022-09-22T05:12:41.286Z,100577.31
2022-09-22T05:15:09.847Z,100588.69
2022-09-22T05:17:37.048Z,100591.00
2022-09-22T05:20:05.972Z,100590.09
2022-09-22T05:22:39.745Z,100613.88
2022-09-22T05:25:09.262Z,100566.13
2022-09-22T05:27:36.083Z,100579.19
2022-09-22T05:30:03.140Z,100560.50
2022-09-22T05:32:29.857Z,100579.09
2022-09-22T05:34:56.635Z,100584.47
2022-09-22T05:37:23.275Z,100571.19
2022-09-22T05:39:49.946Z,100569.31
2022-09-22T05:42:16.605Z,100576.91
2022-09-22T05:44:43.282Z,100553.84
2022-09-22T05:47:09.939Z,100557.81
2022-09-22T05:49:36.635Z,100568.47
2022-09-22T05:52:03.375Z,100588.28
2022-09-22T05:54:30.013Z,100549.34
2022-09-22T05:56:56.749Z,100548.31
2022-09-22T05:59:23.519Z,100569.22
2022-09-22T06:01:50.262Z,100554.06
2022-09-22T06:04:17.067Z,100541.81
2022-09-22T06:06:43.860Z,100591.97
2022-09-22T06:09:10.613Z,100598.38
2022-09-22T06:11:37.461Z,100598.19
2022-09-22T06:14:04.186Z,100620.03
2022-09-22T06:16:31.825Z,100608.44
2022-09-22T06:18:58.564Z,100631.47
2022-09-22T06:21:26.013Z,100601.19
2022-09-22T06:23:52.795Z,100597.16
2022-09-22T06:26:19.470Z,100611.09
2022-09-22T06:28:47.147Z,100610.25
2022-09-22T07:11:40.887Z,100596.09
2022-09-22T07:52:31.199Z,100599.72
2022-09-22T07:57:39.648Z,100549.75
2022-09-22T08:14:01.448Z,100639.31
2022-09-22T08:22:03.686Z,100604.00
2022-09-22T09:16:57.021Z,100596.78
2022-09-22T09:19:34.405Z,100644.47
2022-09-22T09:22:07.609Z,100620.34
2022-09-22T09:27:37.610Z,100640.25
2022-09-22T09:30:19.667Z,100624.16
2022-09-22T09:32:53.678Z,100647.81
2022-09-22T09:35:45.380Z,100645.28
2022-09-22T09:38:15.920Z,100602.22
2022-09-22T09:40:49.004Z,100632.06
2022-09-22T09:43:17.164Z,100657.44
2022-09-22T09:46:12.469Z,100654.69
2022-09-22T09:48:59.188Z,100628.06
2022-09-22T09:54:14.542Z,100651.59
2022-09-22T09:57:18.662Z,100665.91
2022-09-22T10:00:25.942Z,100546.38
2022-09-22T10:03:12.417Z,100617.56
2022-09-22T10:05:43.787Z,100612.47
2022-09-22T10:16:52.953Z,100651.66
2022-09-22T10:19:35.366Z,100629.84
2022-09-22T10:22:24.232Z,100672.47
2022-09-22T10:24:57.988Z,100675.66
2022-09-22T11:49:55.983Z,100728.19
2022-09-22T11:55:30.691Z,100736.19
2022-09-22T12:01:13.131Z,100699.31
2022-09-22T12:04:19.378Z,100736.00
2022-09-22T12:06:56.671Z,100662.44
2022-09-22T12:10:05.316Z,100751.19
2022-09-22T12:12:43.303Z,100677.69
2022-09-22T12:16:01.115Z,100653.81
2022-09-22T12:19:17.631Z,100739.63
2022-09-22T12:22:05.249Z,100737.91
2022-09-22T12:24:32.922Z,100722.34
2022-09-22T12:27:11.087Z,100718.50
2022-09-22T12:29:39.046Z,100683.56
2022-09-22T12:32:06.240Z,100666.44
2022-09-22T12:34:43.440Z,100725.88
2022-09-22T12:37:23.096Z,100689.44
2022-09-22T12:39:50.118Z,100678.41
2022-09-22T12:42:34.518Z,100671.19
2022-09-22T12:45:19.609Z,100671.41
2022-09-22T12:47:53.494Z,100736.28
2022-09-22T12:50:23.208Z,100735.44
2022-09-22T12:52:51.297Z,100738.47
2022-09-22T12:55:21.757Z,100734.44
2022-09-22T12:57:50.895Z,100709.63
2022-09-22T13:00:37.746Z,100711.88
2022-09-22T13:06:33.932Z,100743.34
2022-09-22T13:09:02.927Z,100728.84
2022-09-22T13:12:08.612Z,100727.44
2022-09-22T13:15:19.179Z,100723.09
2022-09-22T13:17:50.432Z,100697.22
2022-09-22T13:20:33.597Z,100695.66
2022-09-22T13:28:36.783Z,100680.03
2022-09-22T13:33:59.888Z,100709.41
2022-09-22T13:36:28.086Z,100655.91
2022-09-22T13:38:59.158Z,100747.66
2022-09-22T13:41:29.189Z,100705.19
2022-09-22T15:08:19.584Z,100776.06
2022-09-22T15:10:59.369Z,100773.16
2022-09-22T15:16:40.426Z,100783.38
2022-09-22T15:19:12.295Z,100738.72
2022-09-22T15:21:46.727Z,100744.66
2022-09-22T15:24:18.378Z,100744.16
2022-09-22T15:26:46.923Z,100757.53
2022-09-22T15:29:17.536Z,100721.19
2022-09-22T15:34:25.980Z,100734.91
2022-09-22T15:36:53.656Z,100747.94
2022-09-22T15:39:22.728Z,100711.06
2022-09-22T15:41:51.094Z,100736.44
2022-09-22T15:44:18.258Z,100701.94
2022-09-22T15:46:50.442Z,100705.22
2022-09-22T15:49:22.690Z,100657.66
2022-09-22T15:51:49.943Z,100724.97
2022-09-22T15:54:21.951Z,100744.72
2022-09-22T15:56:54.956Z,100702.09
2022-09-22T15:59:22.982Z,100762.44
2022-09-22T16:01:52.273Z,100749.25
2022-09-22T16:04:19.943Z,100696.25
2022-09-22T16:06:54.421Z,100761.44
2022-09-22T16:09:21.671Z,100704.47
2022-09-22T16:11:48.637Z,100735.19
2022-09-22T16:14:15.471Z,100705.16
2022-09-22T16:16:43.190Z,100728.28
2022-09-22T16:19:11.265Z,100730.19
2022-09-22T16:21:50.162Z,100736.88
2022-09-22T16:24:17.399Z,100752.81
2022-09-22T16:26:44.260Z,100772.84
2022-09-22T16:29:11.541Z,100735.91
2022-09-22T16:31:38.902Z,100727.22
2022-09-22T16:34:08.422Z,100746.41
2022-09-22T16:36:36.723Z,100741.09
2022-09-22T16:39:04.555Z,100750.44
2022-09-22T16:41:35.740Z,100732.09
2022-09-22T16:44:03.868Z,100744.09
2022-09-22T16:46:31.924Z,100738.56
2022-09-22T16:49:17.488Z,100706.31
2022-09-22T16:51:48.899Z,100766.13
2022-09-22T16:54:16.980Z,100724.56
2022-09-22T16:56:46.601Z,100760.38
2022-09-22T16:59:21.683Z,100772.50
2022-09-22T17:01:50.187Z,100709.94
2022-09-22T17:04:19.334Z,100710.00
2022-09-22T17:06:47.550Z,100712.53
2022-09-22T17:09:15.954Z,100765.03
2022-09-22T17:11:46.030Z,100725.41
2022-09-22T17:14:16.083Z,100754.31
2022-09-22T17:16:50.503Z,100730.13
2022-09-22T17:19:20.206Z,100786.13
2022-09-22T17:21:49.030Z,100789.06
2022-09-22T17:24:16.254Z,100680.63
2022-09-22T17:26:48.221Z,100728.94
2022-09-22T17:30:01.678Z,100792.63
2022-09-22T17:32:30.500Z,100758.00
2022-09-22T17:34:57.285Z,100738.34
2022-09-22T17:37:24.227Z,100734.41
2022-09-22T17:39:51.306Z,100769.31
2022-09-22T17:42:18.144Z,100785.81
2022-09-22T17:44:45.469Z,100795.81
2022-09-22T17:47:30.801Z,100749.66
2022-09-22T17:50:16.289Z,100744.91
2022-09-22T17:53:01.534Z,100770.47
2022-09-22T17:55:30.182Z,100779.28
2022-09-22T17:57:57.431Z,100801.16
2022-09-22T18:00:24.897Z,100799.66
2022-09-22T18:02:54.362Z,100793.88
2022-09-22T18:05:28.164Z,100823.34
2022-09-22T18:07:58.509Z,100772.44
2022-09-22T18:10:34.273Z,100785.28
2022-09-22T18:13:02.456Z,100782.22
2022-09-22T18:15:29.422Z,100805.47
2022-09-22T18:17:58.179Z,100815.19
2022-09-22T18:20:26.789Z,100784.03
2022-09-22T18:22:55.340Z,100796.41
2022-09-22T18:25:25.861Z,100813.16
2022-09-22T18:27:53.688Z,100769.47
2022-09-22T18:30:20.741Z,100838.16
2022-09-22T18:32:48.557Z,100815.38
2022-09-22T18:35:15.727Z,100731.63
2022-09-22T18:37:42.825Z,100810.34
2022-09-22T18:40:10.344Z,100797.88
2022-09-22T18:42:37.154Z,100788.88
2022-09-22T18:45:04.377Z,100848.06
2022-09-22T18:47:31.085Z,100797.03
2022-09-22T18:49:59.313Z,100826.34
2022-09-22T18:52:26.280Z,100813.84
2022-09-22T18:54:54.244Z,100796.34
2022-09-22T18:57:22.809Z,100831.47
2022-09-22T18:59:51.219Z,100843.47
2022-09-22T19:02:22.978Z,100852.91
2022-09-22T19:04:51.795Z,100843.56
2022-09-22T19:07:41.417Z,100790.72
2022-09-22T19:10:15.203Z,100873.25
2022-09-22T19:12:42.900Z,100875.63
2022-09-22T19:15:16.806Z,100866.53
2022-09-22T19:17:45.464Z,100845.75
2022-09-22T19:20:13.833Z,100886.16
2022-09-22T19:22:40.940Z,100844.03
2022-09-22T19:25:08.108Z,100850.50
2022-09-22T19:27:35.359Z,100874.34
2022-09-22T19:30:02.578Z,100852.47
2022-09-22T19:32:29.412Z,100859.19
2022-09-22T19:34:57.050Z,100864.31
2022-09-22T19:37:25.028Z,100892.97
2022-09-22T19:39:52.062Z,100888.44
2022-09-22T19:42:19.178Z,100896.06
2022-09-22T19:44:46.382Z,100894.63
2022-09-22T19:47:13.150Z,100893.44
2022-09-22T19:49:42.032Z,100907.06
2022-09-22T19:52:09.453Z,100871.09
2022-09-22T19:54:36.172Z,100881.84
2022-09-22T19:57:02.863Z,100859.78
2022-09-22T19:59:29.787Z,100887.09
2022-09-22T20:01:56.499Z,100869.50
2022-09-22T20:04:23.634Z,100884.03
2022-09-22T20:06:50.435Z,100897.84
2022-09-22T20:09:17.330Z,100910.88
2022-09-22T20:11:49.912Z,100916.28
2022-09-22T20:14:23.776Z,100912.91
2022-09-22T20:17:04.975Z,100910.59
2022-09-22T20:19:34.407Z,100910.59
2022-09-22T20:22:25.567Z,100913.56
2022-09-22T20:25:00.545Z,100909.06
2022-09-22T20:27:30.364Z,100911.97
2022-09-22T20:29:57.897Z,100904.75
2022-09-22T20:32:31.648Z,100917.28
2022-09-22T20:34:58.356Z,100876.91
2022-09-22T20:37:25.117Z,100915.00
2022-09-22T20:39:52.012Z,100918.44
2022-09-22T20:42:18.722Z,100859.19
2022-09-22T20:44:45.513Z,100890.34
2022-09-22T20:47:18.115Z,100893.09
2022-09-22T20:49:48.126Z,100878.84
2022-09-22T20:52:20.273Z,100881.50
2022-09-22T20:54:47.885Z,100918.19
2022-09-22T20:57:14.915Z,100922.50
2022-09-22T20:59:44.029Z,100922.00
2022-09-22T21:02:12.663Z,100900.69
2022-09-22T21:04:39.451Z,100901.25
2022-09-22T21:07:06.251Z,100902.50
2022-09-22T21:09:51.474Z,100904.53
2022-09-22T21:12:18.192Z,100915.63
2022-09-22T21:14:46.046Z,100933.91
2022-09-22T21:17:13.893Z,100935.94
2022-09-22T21:19:40.972Z,100891.22
2022-09-22T21:22:07.933Z,100932.34
2022-09-22T21:24:34.818Z,100932.47
2022-09-22T21:27:01.471Z,100914.81
2022-09-22T21:29:29.580Z,100920.50
2022-09-22T21:31:57.935Z,100930.59
2022-09-22T21:34:25.380Z,100942.75
2022-09-22T21:36:52.579Z,100916.31
2022-09-22T21:39:19.298Z,100933.22
2022-09-22T21:41:45.968Z,100912.91
2022-09-22T21:44:12.743Z,100929.88
2022-09-22T21:46:42.350Z,100897.91
2022-09-22T21:49:10.011Z,100937.25
2022-09-22T21:51:42.317Z,100941.09
2022-09-22T21:54:14.539Z,100897.09
2022-09-22T21:56:41.491Z,100878.34
2022-09-22T21:59:08.746Z,100944.41
2022-09-22T22:01:37.536Z,100941.34
2022-09-22T22:04:08.231Z,100931.94
2022-09-22T22:06:40.909Z,100920.59
2022-09-22T22:09:17.212Z,100944.19
2022-09-22T22:11:48.903Z,100942.59
2022-09-22T22:14:19.352Z,100922.84
2022-09-22T22:16:48.581Z,100955.81
2022-09-22T22:19:20.170Z,100936.88
2022-09-22T22:21:50.472Z,100944.84
2022-09-22T22:24:39.630Z,100945.78
2022-09-22T22:27:10.113Z,100922.97
2022-09-22T22:29:40.556Z,100924.03
2022-09-22T22:32:09.409Z,100923.78
2022-09-22T22:34:37.055Z,100940.34
2022-09-22T22:37:07.152Z,100903.13
2022-09-22T22:39:33.882Z,100873.75
2022-09-22T22:42:00.558Z,100890.13
2022-09-22T22:44:27.192Z,100908.09
2022-09-22T22:46:53.919Z,100872.28
2022-09-22T22:49:20.606Z,100934.38
2022-09-22T22:51:49.291Z,100927.16
2022-09-22T22:54:16.115Z,100942.81
2022-09-22T22:56:44.356Z,100924.16
2022-09-22T22:59:13.507Z,100939.00
2022-09-22T23:01:40.715Z,100925.63
2022-09-22T23:04:10.117Z,100925.03
2022-09-22T23:06:40.100Z,100936.03
2022-09-22T23:09:08.587Z,100922.72
2022-09-22T23:11:38.245Z,100946.19
2022-09-22T23:14:07.029Z,100939.25
2022-09-22T23:16:37.307Z,100936.44
2022-09-22T23:19:09.486Z,100944.75
2022-09-22T23:21:37.182Z,100939.59
2022-09-22T23:24:05.650Z,100946.91
2022-09-22T23:26:32.986Z,100941.25
2022-09-22T23:29:00.169Z,100921.75
2022-09-22T23:31:27.798Z,100933.25
2022-09-22T23:33:54.469Z,100930.56
2022-09-22T23:36:23.207Z,100942.75
2022-09-22T23:38:57.461Z,100933.38
2022-09-22T23:41:24.420Z,100929.38
2022-09-22T23:43:51.660Z,100944.97
2022-09-22T23:46:18.437Z,100911.56
2022-09-22T23:48:47.458Z,100944.06
2022-09-22T23:51:14.707Z,100935.91
2022-09-22T23:53:41.937Z,100891.22
2022-09-22T23:56:09.275Z,100944.84
2022-09-22T23:58:36.326Z,100921.06
